sensor_id;sensor_type;location;lat;lon;timestamp;P1;durP1;ratioP1;P2;durP2;ratioP2
73515;SDS011;61763;51.416;5.442;2023-02-15T00:00:18;41.95;;;16.08;;
73515;SDS011;61763;51.416;5.442;2023-02-15T00:02:44;51.55;;;18.17;;
73515;SDS011;61763;51.416;5.442;2023-02-15T00:05:10;52.35;;;18.25;;
73515;SDS011;61763;51.416;5.442;2023-02-15T00:07:36;44.95;;;17.10;;
73515;SDS011;61763;51.416;5.442;2023-02-15T00:10:01;41.72;;;15.93;;
73515;SDS011;61763;51.416;5.442;2023-02-15T00:12:26;41.03;;;14.80;;
73515;SDS011;61763;51.416;5.442;2023-02-15T00:14:52;40.65;;;15.55;;
73515;SDS011;61763;51.416;5.442;2023-02-15T00:17:17;47.50;;;16.35;;
73515;SDS011;61763;51.416;5.442;2023-02-15T00:19:43;51.33;;;16.98;;
73515;SDS011;61763;51.416;5.442;2023-02-15T00:22:08;46.53;;;18.05;;
73515;SDS011;61763;51.416;5.442;2023-02-15T00:24:34;43.97;;;16.80;;
73515;SDS011;61763;51.416;5.442;2023-02-15T00:26:59;42.50;;;15.68;;
73515;SDS011;61763;51.416;5.442;2023-02-15T00:29:25;42.88;;;17.38;;
73515;SDS011;61763;51.416;5.442;2023-02-15T00:31:51;49.20;;;16.17;;
73515;SDS011;61763;51.416;5.442;2023-02-15T00:34:21;45.60;;;17.50;;
73515;SDS011;61763;51.416;5.442;2023-02-15T00:36:48;42.13;;;17.58;;
73515;SDS011;61763;51.416;5.442;2023-02-15T00:39:14;42.28;;;15.25;;
73515;SDS011;61763;51.416;5.442;2023-02-15T00:41:42;51.03;;;19.73;;
73515;SDS011;61763;51.416;5.442;2023-02-15T00:44:08;46.25;;;16.65;;
73515;SDS011;61763;51.416;5.442;2023-02-15T00:46:34;43.05;;;17.92;;
73515;SDS011;61763;51.416;5.442;2023-02-15T00:49:00;38.40;;;16.27;;
73515;SDS011;61763;51.416;5.442;2023-02-15T00:51:25;44.88;;;16.33;;
73515;SDS011;61763;51.416;5.442;2023-02-15T00:53:51;44.53;;;18.98;;
73515;SDS011;61763;51.416;5.442;2023-02-15T00:56:16;47.08;;;19.10;;
73515;SDS011;61763;51.416;5.442;2023-02-15T00:58:43;57.22;;;20.08;;
73515;SDS011;61763;51.416;5.442;2023-02-15T01:01:13;43.75;;;16.42;;
73515;SDS011;61763;51.416;5.442;2023-02-15T01:03:40;51.78;;;16.40;;
73515;SDS011;61763;51.416;5.442;2023-02-15T01:06:10;45.17;;;15.05;;
73515;SDS011;61763;51.416;5.442;2023-02-15T01:08:36;48.53;;;17.05;;
73515;SDS011;61763;51.416;5.442;2023-02-15T01:11:06;48.45;;;17.95;;
73515;SDS011;61763;51.416;5.442;2023-02-15T01:13:37;51.90;;;17.42;;
73515;SDS011;61763;51.416;5.442;2023-02-15T01:16:04;49.25;;;16.45;;
73515;SDS011;61763;51.416;5.442;2023-02-15T01:18:29;42.65;;;17.20;;
73515;SDS011;61763;51.416;5.442;2023-02-15T01:20:55;42.17;;;16.00;;
73515;SDS011;61763;51.416;5.442;2023-02-15T01:23:21;49.25;;;17.38;;
73515;SDS011;61763;51.416;5.442;2023-02-15T01:25:46;40.55;;;14.98;;
73515;SDS011;61763;51.416;5.442;2023-02-15T01:28:12;41.20;;;15.38;;
73515;SDS011;61763;51.416;5.442;2023-02-15T01:30:37;46.03;;;15.60;;
73515;SDS011;61763;51.416;5.442;2023-02-15T01:33:03;38.50;;;15.60;;
73515;SDS011;61763;51.416;5.442;2023-02-15T01:35:28;42.13;;;16.33;;
73515;SDS011;61763;51.416;5.442;2023-02-15T01:37:57;43.60;;;15.43;;
73515;SDS011;61763;51.416;5.442;2023-02-15T01:40:23;46.95;;;17.08;;
73515;SDS011;61763;51.416;5.442;2023-02-15T01:42:52;43.13;;;15.48;;
73515;SDS011;61763;51.416;5.442;2023-02-15T01:45:26;48.72;;;13.80;;
73515;SDS011;61763;51.416;5.442;2023-02-15T01:50:53;42.28;;;13.32;;
73515;SDS011;61763;51.416;5.442;2023-02-15T01:53:24;44.13;;;16.35;;
73515;SDS011;61763;51.416;5.442;2023-02-15T01:55:59;40.97;;;14.02;;
73515;SDS011;61763;51.416;5.442;2023-02-15T01:58:30;44.92;;;15.43;;
73515;SDS011;61763;51.416;5.442;2023-02-15T02:00:59;39.95;;;12.50;;
73515;SDS011;61763;51.416;5.442;2023-02-15T02:06:24;36.20;;;13.43;;
73515;SDS011;61763;51.416;5.442;2023-02-15T02:08:52;38.13;;;11.07;;
73515;SDS011;61763;51.416;5.442;2023-02-15T02:13:46;38.05;;;11.93;;
73515;SDS011;61763;51.416;5.442;2023-02-15T02:27:34;40.53;;;13.50;;
73515;SDS011;61763;51.416;5.442;2023-02-15T02:43:33;40.20;;;13.90;;
73515;SDS011;61763;51.416;5.442;2023-02-15T02:46:08;39.78;;;11.57;;
73515;SDS011;61763;51.416;5.442;2023-02-15T02:48:39;33.97;;;13.10;;
73515;SDS011;61763;51.416;5.442;2023-02-15T02:51:05;31.98;;;11.85;;
73515;SDS011;61763;51.416;5.442;2023-02-15T02:53:30;37.00;;;12.48;;
73515;SDS011;61763;51.416;5.442;2023-02-15T02:56:03;37.33;;;12.55;;
73515;SDS011;61763;51.416;5.442;2023-02-15T02:58:46;32.65;;;12.82;;
73515;SDS011;61763;51.416;5.442;2023-02-15T03:01:24;39.88;;;13.40;;
73515;SDS011;61763;51.416;5.442;2023-02-15T03:03:57;33.53;;;10.60;;
73515;SDS011;61763;51.416;5.442;2023-02-15T03:06:30;36.10;;;12.55;;
73515;SDS011;61763;51.416;5.442;2023-02-15T03:09:09;35.25;;;13.13;;
73515;SDS011;61763;51.416;5.442;2023-02-15T03:11:42;36.70;;;12.88;;
73515;SDS011;61763;51.416;5.442;2023-02-15T03:14:09;40.78;;;12.32;;
73515;SDS011;61763;51.416;5.442;2023-02-15T03:19:12;32.22;;;12.38;;
73515;SDS011;61763;51.416;5.442;2023-02-15T03:24:39;37.38;;;12.77;;
73515;SDS011;61763;51.416;5.442;2023-02-15T03:27:10;41.90;;;13.00;;
73515;SDS011;61763;51.416;5.442;2023-02-15T03:29:42;42.63;;;12.88;;
73515;SDS011;61763;51.416;5.442;2023-02-15T03:32:10;44.67;;;12.57;;
73515;SDS011;61763;51.416;5.442;2023-02-15T03:34:37;37.42;;;13.50;;
73515;SDS011;61763;51.416;5.442;2023-02-15T03:37:20;40.92;;;12.40;;
73515;SDS011;61763;51.416;5.442;2023-02-15T03:39:59;43.72;;;13.65;;
73515;SDS011;61763;51.416;5.442;2023-02-15T03:42:48;31.40;;;11.93;;
73515;SDS011;61763;51.416;5.442;2023-02-15T03:45:24;34.78;;;14.23;;
73515;SDS011;61763;51.416;5.442;2023-02-15T03:47:53;37.05;;;15.00;;
73515;SDS011;61763;51.416;5.442;2023-02-15T03:50:26;45.63;;;16.10;;
73515;SDS011;61763;51.416;5.442;2023-02-15T03:53:14;42.70;;;16.83;;
73515;SDS011;61763;51.416;5.442;2023-02-15T03:55:45;36.20;;;13.13;;
73515;SDS011;61763;51.416;5.442;2023-02-15T03:58:12;39.17;;;13.63;;
73515;SDS011;61763;51.416;5.442;2023-02-15T04:01:00;35.47;;;14.48;;
73515;SDS011;61763;51.416;5.442;2023-02-15T04:06:20;36.25;;;15.02;;
73515;SDS011;61763;51.416;5.442;2023-02-15T04:08:45;40.88;;;15.05;;
73515;SDS011;61763;51.416;5.442;2023-02-15T04:11:29;42.67;;;15.55;;
73515;SDS011;61763;51.416;5.442;2023-02-15T04:13:55;43.30;;;14.40;;
73515;SDS011;61763;51.416;5.442;2023-02-15T04:16:24;39.90;;;14.13;;
73515;SDS011;61763;51.416;5.442;2023-02-15T04:18:49;52.28;;;16.00;;
73515;SDS011;61763;51.416;5.442;2023-02-15T04:21:34;38.05;;;11.75;;
73515;SDS011;61763;51.416;5.442;2023-02-15T04:24:17;48.60;;;16.15;;
73515;SDS011;61763;51.416;5.442;2023-02-15T04:27:02;39.50;;;13.77;;
73515;SDS011;61763;51.416;5.442;2023-02-15T04:29:28;38.92;;;12.13;;
73515;SDS011;61763;51.416;5.442;2023-02-15T04:31:55;32.90;;;13.32;;
73515;SDS011;61763;51.416;5.442;2023-02-15T04:34:21;35.85;;;11.82;;
73515;SDS011;61763;51.416;5.442;2023-02-15T04:36:48;39.67;;;13.27;;
73515;SDS011;61763;51.416;5.442;2023-02-15T04:39:15;44.45;;;13.25;;
73515;SDS011;61763;51.416;5.442;2023-02-15T04:41:42;40.13;;;12.27;;
73515;SDS011;61763;51.416;5.442;2023-02-15T04:44:07;40.67;;;13.95;;
73515;SDS011;61763;51.416;5.442;2023-02-15T04:46:33;36.22;;;12.80;;
73515;SDS011;61763;51.416;5.442;2023-02-15T04:48:59;40.97;;;14.25;;
73515;SDS011;61763;51.416;5.442;2023-02-15T04:51:24;51.13;;;15.07;;
73515;SDS011;61763;51.416;5.442;2023-02-15T04:53:50;37.20;;;13.00;;
73515;SDS011;61763;51.416;5.442;2023-02-15T04:56:19;39.63;;;13.23;;
73515;SDS011;61763;51.416;5.442;2023-02-15T04:58:45;31.85;;;12.90;;
73515;SDS011;61763;51.416;5.442;2023-02-15T05:01:11;35.45;;;12.65;;
73515;SDS011;61763;51.416;5.442;2023-02-15T05:03:36;42.30;;;15.02;;
73515;SDS011;61763;51.416;5.442;2023-02-15T05:06:02;41.63;;;13.52;;
73515;SDS011;61763;51.416;5.442;2023-02-15T05:08:28;43.42;;;15.60;;
73515;SDS011;61763;51.416;5.442;2023-02-15T05:10:54;42.20;;;14.52;;
73515;SDS011;61763;51.416;5.442;2023-02-15T05:13:19;43.55;;;15.05;;
73515;SDS011;61763;51.416;5.442;2023-02-15T05:15:48;54.72;;;16.30;;
73515;SDS011;61763;51.416;5.442;2023-02-15T05:18:14;42.60;;;15.02;;
73515;SDS011;61763;51.416;5.442;2023-02-15T05:20:40;43.78;;;14.20;;
73515;SDS011;61763;51.416;5.442;2023-02-15T05:23:07;42.10;;;14.57;;
73515;SDS011;61763;51.416;5.442;2023-02-15T05:25:32;44.13;;;14.30;;
73515;SDS011;61763;51.416;5.442;2023-02-15T05:28:16;49.58;;;16.13;;
73515;SDS011;61763;51.416;5.442;2023-02-15T05:30:44;51.38;;;15.02;;
73515;SDS011;61763;51.416;5.442;2023-02-15T05:33:09;51.15;;;16.50;;
73515;SDS011;61763;51.416;5.442;2023-02-15T05:35:35;45.85;;;14.23;;
73515;SDS011;61763;51.416;5.442;2023-02-15T05:38:00;41.88;;;14.55;;
73515;SDS011;61763;51.416;5.442;2023-02-15T05:40:26;45.25;;;14.75;;
73515;SDS011;61763;51.416;5.442;2023-02-15T05:42:53;52.58;;;16.77;;
73515;SDS011;61763;51.416;5.442;2023-02-15T05:45:18;39.97;;;14.95;;
73515;SDS011;61763;51.416;5.442;2023-02-15T05:47:44;46.38;;;14.55;;
73515;SDS011;61763;51.416;5.442;2023-02-15T05:50:10;49.42;;;15.00;;
73515;SDS011;61763;51.416;5.442;2023-02-15T05:52:36;50.22;;;14.82;;
73515;SDS011;61763;51.416;5.442;2023-02-15T05:55:02;42.28;;;15.10;;
73515;SDS011;61763;51.416;5.442;2023-02-15T05:57:29;44.80;;;15.05;;
73515;SDS011;61763;51.416;5.442;2023-02-15T05:59:54;41.95;;;15.63;;
73515;SDS011;61763;51.416;5.442;2023-02-15T06:02:20;38.80;;;13.27;;
73515;SDS011;61763;51.416;5.442;2023-02-15T06:04:45;41.72;;;16.30;;
73515;SDS011;61763;51.416;5.442;2023-02-15T06:07:11;38.08;;;13.07;;
73515;SDS011;61763;51.416;5.442;2023-02-15T06:09:36;45.40;;;16.35;;
73515;SDS011;61763;51.416;5.442;2023-02-15T06:12:02;41.67;;;15.65;;
73515;SDS011;61763;51.416;5.442;2023-02-15T06:14:27;44.95;;;14.10;;
73515;SDS011;61763;51.416;5.442;2023-02-15T06:16:52;42.80;;;14.45;;
73515;SDS011;61763;51.416;5.442;2023-02-15T06:19:19;45.80;;;13.20;;
73515;SDS011;61763;51.416;5.442;2023-02-15T06:21:46;52.55;;;15.68;;
73515;SDS011;61763;51.416;5.442;2023-02-15T06:24:11;46.67;;;15.18;;
73515;SDS011;61763;51.416;5.442;2023-02-15T06:26:36;48.88;;;16.35;;
73515;SDS011;61763;51.416;5.442;2023-02-15T06:29:02;44.35;;;14.05;;
73515;SDS011;61763;51.416;5.442;2023-02-15T06:31:27;40.38;;;14.20;;
73515;SDS011;61763;51.416;5.442;2023-02-15T06:33:53;41.03;;;13.90;;
73515;SDS011;61763;51.416;5.442;2023-02-15T06:36:25;40.58;;;12.98;;
73515;SDS011;61763;51.416;5.442;2023-02-15T06:38:52;32.63;;;13.43;;
73515;SDS011;61763;51.416;5.442;2023-02-15T06:41:17;41.60;;;13.50;;
73515;SDS011;61763;51.416;5.442;2023-02-15T06:43:43;50.72;;;15.43;;
73515;SDS011;61763;51.416;5.442;2023-02-15T06:46:08;36.53;;;12.43;;
73515;SDS011;61763;51.416;5.442;2023-02-15T06:48:33;41.28;;;13.07;;
73515;SDS011;61763;51.416;5.442;2023-02-15T06:50:59;49.20;;;16.00;;
73515;SDS011;61763;51.416;5.442;2023-02-15T06:53:24;48.75;;;14.18;;
73515;SDS011;61763;51.416;5.442;2023-02-15T06:55:50;52.45;;;15.18;;
73515;SDS011;61763;51.416;5.442;2023-02-15T06:58:15;39.75;;;14.18;;
73515;SDS011;61763;51.416;5.442;2023-02-15T07:00:41;39.95;;;12.02;;
73515;SDS011;61763;51.416;5.442;2023-02-15T07:03:06;38.80;;;12.10;;
73515;SDS011;61763;51.416;5.442;2023-02-15T07:05:33;39.65;;;14.82;;
73515;SDS011;61763;51.416;5.442;2023-02-15T07:07:59;54.20;;;13.77;;
73515;SDS011;61763;51.416;5.442;2023-02-15T07:10:25;41.92;;;12.98;;
73515;SDS011;61763;51.416;5.442;2023-02-15T07:12:51;42.25;;;16.30;;
73515;SDS011;61763;51.416;5.442;2023-02-15T07:15:18;49.88;;;14.85;;
73515;SDS011;61763;51.416;5.442;2023-02-15T07:17:45;44.85;;;15.15;;
73515;SDS011;61763;51.416;5.442;2023-02-15T07:20:13;48.85;;;16.75;;
73515;SDS011;61763;51.416;5.442;2023-02-15T07:22:41;42.35;;;13.43;;
73515;SDS011;61763;51.416;5.442;2023-02-15T07:25:09;39.67;;;15.50;;
73515;SDS011;61763;51.416;5.442;2023-02-15T07:30:03;47.92;;;15.18;;
73515;SDS011;61763;51.416;5.442;2023-02-15T07:32:30;45.42;;;15.65;;
73515;SDS011;61763;51.416;5.442;2023-02-15T07:34:59;37.00;;;13.75;;
73515;SDS011;61763;51.416;5.442;2023-02-15T07:37:24;57.17;;;18.98;;
73515;SDS011;61763;51.416;5.442;2023-02-15T07:39:50;38.10;;;14.48;;
73515;SDS011;61763;51.416;5.442;2023-02-15T07:42:15;53.92;;;15.98;;
73515;SDS011;61763;51.416;5.442;2023-02-15T07:44:41;54.40;;;17.02;;
73515;SDS011;61763;51.416;5.442;2023-02-15T07:47:06;47.45;;;14.73;;
73515;SDS011;61763;51.416;5.442;2023-02-15T07:49:31;45.47;;;14.48;;
73515;SDS011;61763;51.416;5.442;2023-02-15T07:51:57;51.85;;;17.40;;
73515;SDS011;61763;51.416;5.442;2023-02-15T07:54:22;46.65;;;15.68;;
73515;SDS011;61763;51.416;5.442;2023-02-15T07:56:48;59.05;;;16.10;;
73515;SDS011;61763;51.416;5.442;2023-02-15T07:59:13;52.90;;;15.68;;
73515;SDS011;61763;51.416;5.442;2023-02-15T08:01:39;54.55;;;16.05;;
73515;SDS011;61763;51.416;5.442;2023-02-15T08:04:05;57.00;;;18.33;;
73515;SDS011;61763;51.416;5.442;2023-02-15T08:06:33;30.52;;;12.02;;
73515;SDS011;61763;51.416;5.442;2023-02-15T08:09:03;45.47;;;15.73;;
73515;SDS011;61763;51.416;5.442;2023-02-15T08:11:30;52.10;;;16.00;;
73515;SDS011;61763;51.416;5.442;2023-02-15T08:16:45;44.42;;;15.43;;
73515;SDS011;61763;51.416;5.442;2023-02-15T08:19:15;42.92;;;14.30;;
73515;SDS011;61763;51.416;5.442;2023-02-15T08:21:42;24.27;;;12.13;;
73515;SDS011;61763;51.416;5.442;2023-02-15T08:24:10;50.90;;;19.15;;
73515;SDS011;61763;51.416;5.442;2023-02-15T08:26:38;49.28;;;16.08;;
73515;SDS011;61763;51.416;5.442;2023-02-15T08:29:04;51.88;;;17.33;;
73515;SDS011;61763;51.416;5.442;2023-02-15T08:31:31;51.40;;;19.63;;
73515;SDS011;61763;51.416;5.442;2023-02-15T08:33:57;50.60;;;18.00;;
73515;SDS011;61763;51.416;5.442;2023-02-15T08:36:24;54.17;;;16.98;;
73515;SDS011;61763;51.416;5.442;2023-02-15T08:38:55;54.90;;;20.20;;
73515;SDS011;61763;51.416;5.442;2023-02-15T08:41:27;53.60;;;18.25;;
73515;SDS011;61763;51.416;5.442;2023-02-15T08:46:22;49.70;;;17.35;;
73515;SDS011;61763;51.416;5.442;2023-02-15T08:51:16;42.80;;;15.32;;
73515;SDS011;61763;51.416;5.442;2023-02-15T08:53:44;51.65;;;18.48;;
73515;SDS011;61763;51.416;5.442;2023-02-15T08:56:15;52.83;;;18.20;;
73515;SDS011;61763;51.416;5.442;2023-02-15T08:58:41;46.03;;;17.50;;
73515;SDS011;61763;51.416;5.442;2023-02-15T09:01:16;44.28;;;18.38;;
73515;SDS011;61763;51.416;5.442;2023-02-15T09:03:45;39.40;;;15.65;;
73515;SDS011;61763;51.416;5.442;2023-02-15T09:06:12;44.47;;;18.05;;
73515;SDS011;61763;51.416;5.442;2023-02-15T09:08:38;37.85;;;15.90;;
73515;SDS011;61763;51.416;5.442;2023-02-15T09:11:09;45.88;;;18.48;;
73515;SDS011;61763;51.416;5.442;2023-02-15T09:13:37;26.75;;;11.27;;
73515;SDS011;61763;51.416;5.442;2023-02-15T09:16:04;41.78;;;16.20;;
73515;SDS011;61763;51.416;5.442;2023-02-15T09:21:04;42.80;;;16.58;;
73515;SDS011;61763;51.416;5.442;2023-02-15T09:23:30;45.03;;;18.55;;
73515;SDS011;61763;51.416;5.442;2023-02-15T09:26:00;43.38;;;17.38;;
73515;SDS011;61763;51.416;5.442;2023-02-15T09:28:27;41.50;;;17.92;;
73515;SDS011;61763;51.416;5.442;2023-02-15T09:30:52;38.50;;;16.80;;
73515;SDS011;61763;51.416;5.442;2023-02-15T09:33:17;41.83;;;18.02;;
73515;SDS011;61763;51.416;5.442;2023-02-15T09:35:43;37.92;;;15.52;;
73515;SDS011;61763;51.416;5.442;2023-02-15T09:38:08;36.85;;;15.68;;
73515;SDS011;61763;51.416;5.442;2023-02-15T09:40:38;36.42;;;14.50;;
73515;SDS011;61763;51.416;5.442;2023-02-15T09:43:20;39.92;;;16.55;;
73515;SDS011;61763;51.416;5.442;2023-02-15T09:46:10;37.75;;;17.10;;
73515;SDS011;61763;51.416;5.442;2023-02-15T09:48:51;26.80;;;12.68;;
73515;SDS011;61763;51.416;5.442;2023-02-15T09:54:23;32.20;;;14.52;;
73515;SDS011;61763;51.416;5.442;2023-02-15T09:57:13;32.30;;;14.68;;
73515;SDS011;61763;51.416;5.442;2023-02-15T10:14:09;32.13;;;14.30;;
73515;SDS011;61763;51.416;5.442;2023-02-15T10:25:26;31.27;;;12.75;;
73515;SDS011;61763;51.416;5.442;2023-02-15T10:28:08;29.38;;;13.82;;
73515;SDS011;61763;51.416;5.442;2023-02-15T10:30:42;33.60;;;15.40;;
73515;SDS011;61763;51.416;5.442;2023-02-15T10:39:29;26.33;;;14.65;;
73515;SDS011;61763;51.416;5.442;2023-02-15T10:42:30;28.80;;;13.07;;
73515;SDS011;61763;51.416;5.442;2023-02-15T10:45:20;35.22;;;14.23;;
73515;SDS011;61763;51.416;5.442;2023-02-15T10:51:03;34.38;;;14.68;;
73515;SDS011;61763;51.416;5.442;2023-02-15T11:02:01;29.05;;;14.18;;
73515;SDS011;61763;51.416;5.442;2023-02-15T11:07:35;28.33;;;13.07;;
73515;SDS011;61763;51.416;5.442;2023-02-15T11:13:09;29.60;;;12.70;;
73515;SDS011;61763;51.416;5.442;2023-02-15T11:15:44;27.38;;;13.02;;
73515;SDS011;61763;51.416;5.442;2023-02-15T11:18:19;27.23;;;13.70;;
73515;SDS011;61763;51.416;5.442;2023-02-15T11:23:41;28.00;;;11.73;;
73515;SDS011;61763;51.416;5.442;2023-02-15T11:26:14;25.50;;;12.77;;
73515;SDS011;61763;51.416;5.442;2023-02-15T11:29:11;30.45;;;14.32;;
73515;SDS011;61763;51.416;5.442;2023-02-15T11:36:55;26.92;;;12.77;;
73515;SDS011;61763;51.416;5.442;2023-02-15T11:39:27;25.88;;;13.05;;
73515;SDS011;61763;51.416;5.442;2023-02-15T11:41:55;27.02;;;12.38;;
73515;SDS011;61763;51.416;5.442;2023-02-15T11:44:32;26.23;;;13.68;;
73515;SDS011;61763;51.416;5.442;2023-02-15T11:46:58;27.23;;;11.98;;
73515;SDS011;61763;51.416;5.442;2023-02-15T11:49:32;26.65;;;11.88;;
73515;SDS011;61763;51.416;5.442;2023-02-15T11:52:00;25.50;;;13.23;;
73515;SDS011;61763;51.416;5.442;2023-02-15T11:54:34;28.17;;;12.45;;
73515;SDS011;61763;51.416;5.442;2023-02-15T11:57:45;28.35;;;13.57;;
73515;SDS011;61763;51.416;5.442;2023-02-15T12:00:01;31.95;;;13.25;;
73515;SDS011;61763;51.416;5.442;2023-02-15T12:02:37;24.50;;;10.38;;
73515;SDS011;61763;51.416;5.442;2023-02-15T12:05:09;24.67;;;12.38;;
73515;SDS011;61763;51.416;5.442;2023-02-15T12:07:42;27.67;;;10.88;;
73515;SDS011;61763;51.416;5.442;2023-02-15T12:13:14;22.45;;;10.63;;
73515;SDS011;61763;51.416;5.442;2023-02-15T12:15:48;24.33;;;12.20;;
73515;SDS011;61763;51.416;5.442;2023-02-15T12:21:04;21.50;;;10.23;;
73515;SDS011;61763;51.416;5.442;2023-02-15T12:23:34;28.48;;;11.93;;
73515;SDS011;61763;51.416;5.442;2023-02-15T12:26:08;20.38;;;9.75;;
73515;SDS011;61763;51.416;5.442;2023-02-15T12:28:35;27.73;;;12.60;;
73515;SDS011;61763;51.416;5.442;2023-02-15T12:31:49;29.23;;;13.45;;
73515;SDS011;61763;51.416;5.442;2023-02-15T12:34:02;28.10;;;12.93;;
73515;SDS011;61763;51.416;5.442;2023-02-15T12:36:44;28.50;;;13.10;;
73515;SDS011;61763;51.416;5.442;2023-02-15T12:39:20;25.42;;;11.50;;
73515;SDS011;61763;51.416;5.442;2023-02-15T12:44:26;20.65;;;10.57;;
73515;SDS011;61763;51.416;5.442;2023-02-15T12:49:25;24.58;;;12.02;;
73515;SDS011;61763;51.416;5.442;2023-02-15T12:51:56;23.10;;;10.52;;
73515;SDS011;61763;51.416;5.442;2023-02-15T12:54:38;31.70;;;12.27;;
73515;SDS011;61763;51.416;5.442;2023-02-15T12:57:13;26.48;;;11.57;;
73515;SDS011;61763;51.416;5.442;2023-02-15T13:00:05;30.63;;;11.52;;
73515;SDS011;61763;51.416;5.442;2023-02-15T13:02:50;28.77;;;12.55;;
73515;SDS011;61763;51.416;5.442;2023-02-15T13:05:37;26.88;;;11.65;;
73515;SDS011;61763;51.416;5.442;2023-02-15T13:08:44;28.17;;;11.20;;
73515;SDS011;61763;51.416;5.442;2023-02-15T13:11:00;27.65;;;11.40;;
73515;SDS011;61763;51.416;5.442;2023-02-15T13:13:29;25.52;;;12.02;;
73515;SDS011;61763;51.416;5.442;2023-02-15T13:15:59;27.20;;;12.40;;
73515;SDS011;61763;51.416;5.442;2023-02-15T13:18:30;26.27;;;11.68;;
73515;SDS011;61763;51.416;5.442;2023-02-15T13:21:14;28.35;;;10.55;;
73515;SDS011;61763;51.416;5.442;2023-02-15T13:23:47;20.45;;;11.00;;
73515;SDS011;61763;51.416;5.442;2023-02-15T13:26:18;26.92;;;10.35;;
73515;SDS011;61763;51.416;5.442;2023-02-15T13:28:46;26.23;;;11.75;;
73515;SDS011;61763;51.416;5.442;2023-02-15T13:31:20;24.67;;;11.90;;
73515;SDS011;61763;51.416;5.442;2023-02-15T13:33:51;27.65;;;10.25;;
73515;SDS011;61763;51.416;5.442;2023-02-15T13:36:34;26.50;;;10.05;;
73515;SDS011;61763;51.416;5.442;2023-02-15T13:47:28;26.48;;;10.65;;
73515;SDS011;61763;51.416;5.442;2023-02-15T13:55:57;30.83;;;10.93;;
73515;SDS011;61763;51.416;5.442;2023-02-15T14:06:40;30.52;;;11.10;;
73515;SDS011;61763;51.416;5.442;2023-02-15T14:09:40;24.35;;;9.95;;
73515;SDS011;61763;51.416;5.442;2023-02-15T14:18:15;28.65;;;11.60;;
73515;SDS011;61763;51.416;5.442;2023-02-15T14:20:55;25.23;;;11.30;;
73515;SDS011;61763;51.416;5.442;2023-02-15T14:26:28;29.77;;;14.15;;
73515;SDS011;61763;51.416;5.442;2023-02-15T14:31:51;28.88;;;10.80;;
73515;SDS011;61763;51.416;5.442;2023-02-15T14:34:24;28.55;;;11.57;;
73515;SDS011;61763;51.416;5.442;2023-02-15T14:36:54;28.17;;;11.43;;
73515;SDS011;61763;51.416;5.442;2023-02-15T14:42:53;28.05;;;13.25;;
73515;SDS011;61763;51.416;5.442;2023-02-15T14:45:12;26.85;;;11.88;;
73515;SDS011;61763;51.416;5.442;2023-02-15T14:47:45;30.42;;;14.02;;
73515;SDS011;61763;51.416;5.442;2023-02-15T14:58:34;28.08;;;12.73;;
73515;SDS011;61763;51.416;5.442;2023-02-15T15:01:04;29.42;;;13.52;;
73515;SDS011;61763;51.416;5.442;2023-02-15T15:03:32;28.38;;;13.05;;
73515;SDS011;61763;51.416;5.442;2023-02-15T15:06:00;30.02;;;14.77;;
73515;SDS011;61763;51.416;5.442;2023-02-15T15:08:34;26.88;;;12.25;;
73515;SDS011;61763;51.416;5.442;2023-02-15T15:14:08;32.10;;;13.45;;
73515;SDS011;61763;51.416;5.442;2023-02-15T15:19:00;29.88;;;12.23;;
73515;SDS011;61763;51.416;5.442;2023-02-15T15:33:04;27.52;;;13.13;;
73515;SDS011;61763;51.416;5.442;2023-02-15T15:49:31;27.98;;;12.10;;
73515;SDS011;61763;51.416;5.442;2023-02-15T15:52:01;29.50;;;13.02;;
73515;SDS011;61763;51.416;5.442;2023-02-15T15:54:28;25.95;;;13.20;;
73515;SDS011;61763;51.416;5.442;2023-02-15T15:56:58;24.40;;;12.82;;
73515;SDS011;61763;51.416;5.442;2023-02-15T15:59:31;30.38;;;13.48;;
73515;SDS011;61763;51.416;5.442;2023-02-15T16:02:04;26.70;;;12.35;;
73515;SDS011;61763;51.416;5.442;2023-02-15T16:07:03;26.83;;;12.43;;
73515;SDS011;61763;51.416;5.442;2023-02-15T16:09:41;28.13;;;13.00;;
73515;SDS011;61763;51.416;5.442;2023-02-15T16:12:17;28.80;;;11.88;;
73515;SDS011;61763;51.416;5.442;2023-02-15T16:14:44;31.10;;;14.13;;
73515;SDS011;61763;51.416;5.442;2023-02-15T16:17:33;29.52;;;13.18;;
73515;SDS011;61763;51.416;5.442;2023-02-15T16:20:18;29.23;;;12.40;;
73515;SDS011;61763;51.416;5.442;2023-02-15T16:28:53;32.58;;;15.40;;
73515;SDS011;61763;51.416;5.442;2023-02-15T16:31:19;29.38;;;15.38;;
73515;SDS011;61763;51.416;5.442;2023-02-15T16:33:47;35.33;;;15.60;;
73515;SDS011;61763;51.416;5.442;2023-02-15T16:36:26;34.20;;;16.83;;
73515;SDS011;61763;51.416;5.442;2023-02-15T16:41:22;31.10;;;15.52;;
73515;SDS011;61763;51.416;5.442;2023-02-15T16:43:50;35.47;;;15.30;;
73515;SDS011;61763;51.416;5.442;2023-02-15T16:46:29;29.55;;;13.18;;
73515;SDS011;61763;51.416;5.442;2023-02-15T16:49:02;31.23;;;14.73;;
73515;SDS011;61763;51.416;5.442;2023-02-15T16:51:32;34.22;;;15.70;;
73515;SDS011;61763;51.416;5.442;2023-02-15T16:54:03;32.72;;;15.70;;
73515;SDS011;61763;51.416;5.442;2023-02-15T16:56:32;35.53;;;14.82;;
73515;SDS011;61763;51.416;5.442;2023-02-15T16:58:59;32.13;;;14.95;;
73515;SDS011;61763;51.416;5.442;2023-02-15T17:01:27;36.83;;;13.73;;
73515;SDS011;61763;51.416;5.442;2023-02-15T17:04:11;34.15;;;15.38;;
73515;SDS011;61763;51.416;5.442;2023-02-15T17:06:39;36.00;;;16.20;;
73515;SDS011;61763;51.416;5.442;2023-02-15T17:09:05;33.15;;;13.32;;
73515;SDS011;61763;51.416;5.442;2023-02-15T17:11:42;31.95;;;15.23;;
73515;SDS011;61763;51.416;5.442;2023-02-15T17:16:41;34.65;;;14.90;;
73515;SDS011;61763;51.416;5.442;2023-02-15T17:19:23;35.60;;;12.90;;
73515;SDS011;61763;51.416;5.442;2023-02-15T17:21:53;33.08;;;14.95;;
73515;SDS011;61763;51.416;5.442;2023-02-15T17:24:39;30.63;;;14.60;;
73515;SDS011;61763;51.416;5.442;2023-02-15T17:27:12;33.22;;;15.07;;
73515;SDS011;61763;51.416;5.442;2023-02-15T17:29:52;36.55;;;15.50;;
73515;SDS011;61763;51.416;5.442;2023-02-15T17:32:22;32.83;;;13.73;;
73515;SDS011;61763;51.416;5.442;2023-02-15T17:42:46;35.17;;;15.70;;
73515;SDS011;61763;51.416;5.442;2023-02-15T17:45:11;36.33;;;15.20;;
73515;SDS011;61763;51.416;5.442;2023-02-15T17:47:36;39.35;;;16.90;;
73515;SDS011;61763;51.416;5.442;2023-02-15T17:50:03;41.38;;;15.38;;
73515;SDS011;61763;51.416;5.442;2023-02-15T17:52:30;36.80;;;15.45;;
73515;SDS011;61763;51.416;5.442;2023-02-15T17:54:55;42.95;;;17.17;;
73515;SDS011;61763;51.416;5.442;2023-02-15T17:57:39;39.30;;;17.27;;
73515;SDS011;61763;51.416;5.442;2023-02-15T18:00:07;39.58;;;16.55;;
73515;SDS011;61763;51.416;5.442;2023-02-15T18:02:51;35.35;;;16.20;;
73515;SDS011;61763;51.416;5.442;2023-02-15T18:05:39;42.42;;;16.38;;
73515;SDS011;61763;51.416;5.442;2023-02-15T18:08:24;40.58;;;16.58;;
73515;SDS011;61763;51.416;5.442;2023-02-15T18:11:12;34.45;;;16.40;;
73515;SDS011;61763;51.416;5.442;2023-02-15T18:13:56;37.80;;;16.92;;
73515;SDS011;61763;51.416;5.442;2023-02-15T18:16:26;37.97;;;17.65;;
73515;SDS011;61763;51.416;5.442;2023-02-15T18:18:57;36.53;;;16.35;;
73515;SDS011;61763;51.416;5.442;2023-02-15T18:21:23;38.47;;;17.08;;